Time;durP1;ratioP1;P1;durP2;ratioP2;P2;SDS_P1;SDS_P2;PMS_P1;PMS_P2;Temp;Humidity;BMP_temperature;BMP_pressure;BME280_temperature;BME280_humidity;BME280_pressure;Samples;Min_cycle;Max_cycle;Signal;HPM_P1;HPM_P2
2023/03/25 00:03:14;;;;;;;0.73;0.30;;;;;;;11.12;70.58;99246.03;10416221;28;20828;-63
2023/03/25 00:08:16;;;;;;;1.13;0.65;;;;;;;10.93;71.52;99233.69;10410877;28;20056;-64
2023/03/25 00:13:18;;;;;;;0.20;0.00;;;;;;;10.78;70.39;99250.19;10403977;28;20092;-63
2023/03/25 00:18:20;;;;;;;0.60;0.47;;;;;;;10.76;71.34;99245.97;10414729;28;20044;-64
2023/03/25 00:23:22;;;;;;;0.68;0.10;;;;;;;10.54;70.80;99248.06;10408310;28;20049;-63
2023/03/25 00:28:23;;;;;;;1.90;0.10;;;;;;;10.48;72.53;99259.31;10407860;28;20060;-63
2023/03/25 00:33:27;;;;;;;2.40;0.20;;;;;;;10.52;71.89;99258.00;10411387;28;20075;-66
2023/03/25 00:38:34;;;;;;;1.80;0.10;;;;;;;10.48;72.61;99248.66;10410626;28;20067;-63
2023/03/25 00:43:36;;;;;;;0.80;0.10;;;;;;;10.42;72.73;99249.25;10410569;28;20467;-63
2023/03/25 00:48:38;;;;;;;0.40;0.10;;;;;;;10.33;72.99;99245.66;10409075;28;20051;-63
2023/03/25 00:53:40;;;;;;;2.17;0.20;;;;;;;10.29;73.49;99260.19;10407154;28;20068;-63
2023/03/25 00:58:41;;;;;;;1.27;0.10;;;;;;;10.21;72.71;99244.97;10408341;28;20071;-64
2023/03/25 01:03:43;;;;;;;1.02;0.40;;;;;;;10.14;73.68;99245.69;10409994;28;20053;-64
2023/03/25 01:08:46;;;;;;;1.10;0.28;;;;;;;10.17;72.61;99243.56;10409959;28;20138;-63
2023/03/25 01:13:47;;;;;;;0.88;0.10;;;;;;;10.17;71.92;99240.09;10409660;28;20132;-63
2023/03/25 01:18:49;;;;;;;0.82;0.15;;;;;;;10.15;71.66;99245.56;10410937;28;20068;-63
2023/03/25 01:23:51;;;;;;;0.43;0.13;;;;;;;10.10;70.21;99239.81;10417077;28;20715;-63
2023/03/25 01:28:52;;;;;;;0.43;0.10;;;;;;;10.04;70.53;99221.78;10401815;28;20563;-64
2023/03/25 01:33:58;;;;;;;2.30;0.20;;;;;;;10.05;70.86;99226.13;10413353;28;20110;-64
2023/03/25 01:39:00;;;;;;;1.45;0.17;;;;;;;10.06;70.80;99218.00;10413018;28;20166;-64
2023/03/25 01:44:09;;;;;;;0.80;0.20;;;;;;;10.11;71.00;99224.72;10408319;28;20670;-64
2023/03/25 01:49:20;;;;;;;1.70;0.20;;;;;;;10.06;72.00;99225.97;10413350;28;20107;-64
2023/03/25 01:54:23;;;;;;;0.93;0.20;;;;;;;10.03;71.95;99222.78;10417416;28;20076;-64
2023/03/25 01:59:27;;;;;;;2.17;0.30;;;;;;;10.09;71.87;99217.72;10414571;28;20133;-63
2023/03/25 02:04:38;;;;;;;;;;;;;;;10.09;72.17;99217.72;10411039;28;20508;-63
2023/03/25 02:09:40;;;;;;;1.38;0.82;;;;;;;10.14;71.82;99205.81;10403610;28;20031;-63
2023/03/25 02:14:41;;;;;;;1.98;0.30;;;;;;;10.13;72.86;99207.63;10407616;28;20060;-63
2023/03/25 02:20:12;;;;;;;0.98;0.20;;;;;;;10.04;73.63;99209.34;10383731;28;20564;-63
2023/03/25 02:25:35;;;;;;;1.95;0.30;;;;;;;10.08;74.64;99209.88;10370426;28;20069;-63
2023/03/25 02:31:07;;;;;;;0.98;0.47;;;;;;;10.03;76.40;99201.53;10400035;28;20052;-62
2023/03/25 02:36:36;;;;;;;3.60;0.57;;;;;;;10.02;76.61;99199.84;10378671;28;20824;-63
2023/03/25 02:41:52;;;;;;;1.95;0.60;;;;;;;10.06;77.08;99185.28;10398791;28;20186;-63
2023/03/25 02:46:59;;;;;;;1.40;0.30;;;;;;;10.01;77.60;99183.06;10406419;28;20057;-63
2023/03/25 02:52:05;;;;;;;2.75;0.40;;;;;;;9.99;77.50;99182.34;10406397;28;20188;-63
2023/03/25 02:57:09;;;;;;;2.60;0.47;;;;;;;10.00;78.53;99193.84;10406274;28;20040;-62
2023/03/25 03:02:12;;;;;;;3.88;0.40;;;;;;;9.77;79.71;99172.06;10403966;28;20088;-62
2023/03/25 03:07:27;;;;;;;2.05;0.60;;;;;;;9.93;78.92;99179.44;10406111;28;20060;-62
2023/03/25 03:12:44;;;;;;;;;;;;;;;9.83;79.88;99185.63;10408074;28;20064;-63
2023/03/25 03:18:08;;;;;;;3.17;0.55;;;;;;;9.79;79.15;99194.00;10404057;28;20328;-63
2023/03/25 03:23:23;;;;;;;2.67;0.73;;;;;;;9.79;79.25;99189.56;10398132;28;20109;-62
2023/03/25 03:28:33;;;;;;;2.83;0.87;;;;;;;9.76;78.53;99187.19;10414223;28;20694;-62
2023/03/25 03:33:54;;;;;;;1.85;0.50;;;;;;;9.77;77.71;99194.16;10410335;28;20048;-63
2023/03/25 03:39:06;;;;;;;1.30;0.28;;;;;;;9.78;76.08;99198.50;10403033;28;20057;-63
2023/03/25 03:44:20;;;;;;;1.67;0.73;;;;;;;9.86;75.18;99201.28;10411886;28;20544;-64
2023/03/25 03:49:27;;;;;;;1.60;0.40;;;;;;;9.84;74.89;99189.94;10404827;28;20067;-63
2023/03/25 03:54:33;;;;;;;2.58;0.35;;;;;;;9.79;75.59;99202.84;10415100;28;20083;-63
2023/03/25 04:00:03;;;;;;;1.27;0.60;;;;;;;9.75;75.50;99209.44;10411136;28;20081;-68
2023/03/25 04:05:09;;;;;;;0.85;0.17;;;;;;;9.66;75.75;99207.63;10411724;28;20513;-63
2023/03/25 04:10:20;;;;;;;1.30;0.20;;;;;;;9.64;75.86;99212.25;10411460;28;20160;-62
2023/03/25 04:15:21;;;;;;;0.65;0.30;;;;;;;9.48;76.03;99210.19;10410796;28;20456;-63
2023/03/25 04:20:25;;;;;;;0.90;0.10;;;;;;;9.48;75.96;99215.50;10409365;28;20049;-63
2023/03/25 04:25:28;;;;;;;2.45;0.47;;;;;;;9.31;77.24;99199.28;10410051;28;20083;-63
2023/03/25 04:30:30;;;;;;;1.02;0.40;;;;;;;9.26;77.88;99222.75;10410172;28;20122;-63
2023/03/25 04:35:32;;;;;;;1.30;0.30;;;;;;;9.25;77.87;99238.84;10414160;28;20045;-62
2023/03/25 04:40:34;;;;;;;1.40;0.30;;;;;;;9.19;77.66;99242.91;10407904;28;20053;-63
2023/03/25 04:45:35;;;;;;;1.75;0.20;;;;;;;9.27;77.18;99236.91;10411912;28;20083;-63
2023/03/25 04:50:37;;;;;;;1.55;0.68;;;;;;;9.25;76.86;99238.84;10418632;28;20052;-63
2023/03/25 04:55:46;;;;;;;1.98;0.52;;;;;;;9.28;76.47;99250.03;10408920;28;20069;-63
2023/03/25 05:00:50;;;;;;;2.25;0.82;;;;;;;9.31;75.89;99249.75;10387320;28;20041;-63
2023/03/25 05:05:52;;;;;;;2.22;0.60;;;;;;;9.26;75.85;99235.22;10397818;28;20073;-63
2023/03/25 05:10:54;;;;;;;2.17;0.50;;;;;;;9.28;75.45;99231.44;10405912;28;20052;-63
2023/03/25 05:15:55;;;;;;;1.00;0.50;;;;;;;9.23;75.32;99230.19;10403631;28;20440;-64
2023/03/25 05:20:59;;;;;;;4.70;0.90;;;;;;;9.20;75.32;99237.47;10401642;28;20045;-63
2023/03/25 05:26:02;;;;;;;1.73;0.50;;;;;;;9.14;74.83;99232.72;10405189;28;20485;-63
2023/03/25 05:31:07;;;;;;;4.40;1.08;;;;;;;9.15;75.30;99237.03;10404289;28;20057;-63
2023/03/25 05:36:10;;;;;;;1.75;0.47;;;;;;;9.19;76.17;99256.19;10388269;28;20052;-63
2023/03/25 05:41:15;;;;;;;4.45;1.05;;;;;;;9.16;77.02;99262.59;10398720;28;20065;-64
2023/03/25 05:46:17;;;;;;;3.20;1.25;;;;;;;9.08;77.18;99254.47;10412647;28;20067;-63
2023/03/25 05:51:20;;;;;;;5.40;1.05;;;;;;;9.13;77.35;99262.88;10404992;28;20064;-64
2023/03/25 05:56:23;;;;;;;2.50;1.10;;;;;;;9.13;77.61;99276.16;10399563;28;21100;-64
2023/03/25 06:01:26;;;;;;;2.88;0.80;;;;;;;9.19;77.60;99272.94;10405060;28;20582;-63
2023/03/25 06:06:34;;;;;;;2.92;0.70;;;;;;;9.18;77.45;99281.88;10385158;28;20151;-65
2023/03/25 06:11:39;;;;;;;2.13;0.60;;;;;;;9.06;77.61;99267.06;10390540;28;20053;-65
2023/03/25 06:16:42;;;;;;;2.03;0.60;;;;;;;9.19;77.89;99285.41;10388067;28;20509;-65
2023/03/25 06:21:50;;;;;;;4.00;0.82;;;;;;;9.00;77.83;99283.53;10390674;28;20349;-65
2023/03/25 06:26:51;;;;;;;3.17;0.90;;;;;;;9.19;77.75;99291.53;10400080;28;20085;-69
2023/03/25 06:31:53;;;;;;;2.25;0.70;;;;;;;9.50;76.82;99296.72;10369108;28;20519;-66
2023/03/25 06:36:55;;;;;;;4.53;1.40;;;;;;;9.58;76.58;99301.34;10387508;28;20063;-65
2023/03/25 06:41:57;;;;;;;1.15;0.50;;;;;;;9.63;76.32;99300.91;10388061;28;20059;-65
2023/03/25 06:47:01;;;;;;;2.60;0.60;;;;;;;9.58;75.53;99308.44;10393994;28;20604;-64
2023/03/25 06:52:03;;;;;;;1.00;0.47;;;;;;;9.59;75.10;99305.66;10404703;28;20136;-70
2023/03/25 06:57:05;;;;;;;1.02;0.35;;;;;;;9.61;74.91;99309.03;10405609;28;20147;-67
2023/03/25 07:02:07;;;;;;;3.53;0.60;;;;;;;9.51;75.68;99303.69;10384827;28;20052;-66
2023/03/25 07:07:10;;;;;;;1.10;0.40;;;;;;;9.61;75.44;99316.13;10365502;28;20060;-73
2023/03/25 07:12:11;;;;;;;3.28;0.55;;;;;;;9.71;75.06;99309.88;10370947;28;20712;-66
2023/03/25 07:17:13;;;;;;;4.32;0.88;;;;;;;9.94;74.18;99314.00;10376798;28;20053;-64
2023/03/25 07:22:15;;;;;;;2.40;0.50;;;;;;;10.17;72.82;99317.22;10373795;28;20052;-72
2023/03/25 07:27:17;;;;;;;2.17;0.82;;;;;;;10.46;71.34;99319.78;10386768;28;20834;-68
2023/03/25 07:32:19;;;;;;;4.45;1.02;;;;;;;10.77;69.18;99311.56;10382944;28;20052;-65
2023/03/25 07:37:21;;;;;;;5.43;1.30;;;;;;;10.71;68.08;99296.19;10398939;28;20673;-66
2023/03/25 07:42:23;;;;;;;5.10;1.65;;;;;;;10.67;67.20;99302.78;10381555;28;20067;-66
2023/03/25 07:47:24;;;;;;;2.50;1.00;;;;;;;10.88;66.55;99316.66;10392932;28;20045;-64
2023/03/25 07:52:26;;;;;;;2.72;1.25;;;;;;;11.25;65.67;99309.59;10395231;28;20068;-66
2023/03/25 07:57:27;;;;;;;5.50;1.65;;;;;;;10.96;65.40;99298.13;10400675;28;20052;-67
2023/03/25 08:02:29;;;;;;;4.82;1.50;;;;;;;11.04;64.71;99302.72;10397900;28;20152;-65
2023/03/25 08:07:31;;;;;;;3.53;1.30;;;;;;;11.38;64.64;99299.41;10404820;28;20611;-66
2023/03/25 08:12:33;;;;;;;6.22;1.52;;;;;;;12.02;62.46;99293.94;10405977;28;20744;-67
2023/03/25 08:17:35;;;;;;;3.45;1.27;;;;;;;12.12;61.38;99291.19;10404031;28;20053;-66
2023/03/25 08:22:38;;;;;;;6.25;1.42;;;;;;;12.00;60.20;99304.75;10404669;28;20064;-67
2023/03/25 08:27:40;;;;;;;5.53;1.60;;;;;;;11.81;61.79;99304.91;10408781;28;20104;-66
2023/03/25 08:32:44;;;;;;;3.67;1.88;;;;;;;11.67;61.03;99307.13;10402237;28;20053;-66
2023/03/25 08:37:47;;;;;;;5.50;1.70;;;;;;;11.57;61.13;99302.88;10405843;28;20403;-66
2023/03/25 08:42:49;;;;;;;6.30;1.83;;;;;;;11.78;60.08;99300.72;10398336;28;20049;-71
2023/03/25 08:47:52;;;;;;;5.80;1.38;;;;;;;12.25;58.17;99296.94;10391127;28;20068;-65
2023/03/25 08:52:57;;;;;;;6.05;1.35;;;;;;;12.29;57.28;99295.59;10403433;28;20052;-65
2023/03/25 08:58:05;;;;;;;3.70;1.52;;;;;;;12.25;57.31;99286.25;10396122;28;20057;-66
2023/03/25 09:03:06;;;;;;;6.15;1.35;;;;;;;12.18;57.07;99271.88;10400074;28;20052;-67
2023/03/25 09:08:08;;;;;;;5.75;1.63;;;;;;;12.32;56.96;99249.09;10391566;28;20057;-65
2023/03/25 09:13:10;;;;;;;5.95;1.63;;;;;;;12.32;57.05;99263.25;10400359;28;20049;-68
2023/03/25 09:18:12;;;;;;;6.82;2.38;;;;;;;12.05;56.89;99252.78;10397267;28;20582;-65
2023/03/25 09:23:14;;;;;;;7.43;2.78;;;;;;;12.17;56.98;99257.72;10396866;28;21929;-66
2023/03/25 09:28:16;;;;;;;5.53;2.10;;;;;;;12.17;57.10;99271.03;10396047;28;20057;-66
2023/03/25 09:33:19;;;;;;;4.47;1.77;;;;;;;12.43;56.17;99255.97;10386826;28;20136;-65
2023/03/25 09:38:22;;;;;;;5.72;1.58;;;;;;;13.01;55.79;99233.81;10409508;28;20057;-66
2023/03/25 09:43:50;;;;;;;8.10;1.58;;;;;;;12.85;55.13;99249.78;10401240;28;20056;-67
2023/03/25 09:48:53;;;;;;;4.40;1.67;;;;;;;12.38;56.98;99265.31;10396753;28;20098;-66
2023/03/25 09:54:01;;;;;;;1.02;0.30;;;;;;;11.81;58.03;99395.56;10397071;28;20102;-64
2023/03/25 09:59:08;;;;;;;2.95;0.20;;;;;;;9.74;69.45;99375.16;10398283;28;20052;-65
2023/03/25 10:04:19;;;;;;;1.90;0.20;;;;;;;9.27;71.08;99338.63;10397049;28;20040;-64
2023/03/25 10:09:43;;;;;;;1.55;0.30;;;;;;;9.61;72.17;99327.63;10399916;28;20045;-67
2023/03/25 10:15:04;;;;;;;1.10;0.45;;;;;;;10.59;71.33;99338.94;10396114;28;20392;-68
2023/03/25 10:20:18;;;;;;;1.95;0.50;;;;;;;13.95;61.23;99336.00;10386938;28;20123;-67
2023/03/25 10:25:25;;;;;;;2.47;0.60;;;;;;;15.54;55.29;99322.75;10391974;28;20056;-69
2023/03/25 10:30:34;;;;;;;1.80;0.60;;;;;;;15.23;56.63;99304.00;10375477;28;20052;-68
2023/03/25 10:35:39;;;;;;;1.67;0.73;;;;;;;15.74;53.95;99315.03;10393086;28;20535;-69
2023/03/25 10:40:48;;;;;;;0.63;0.22;;;;;;;16.07;52.04;99306.72;10394492;28;20504;-69
2023/03/25 10:46:20;;;;;;;0.90;0.30;;;;;;;16.56;49.85;99306.22;10385480;28;20500;-69
2023/03/25 10:51:27;;;;;;;0.70;0.15;;;;;;;19.58;42.56;99312.16;10388063;28;20152;-70
2023/03/25 10:56:41;;;;;;;0.93;0.28;;;;;;;21.58;37.44;99318.22;10391842;28;20075;-70
2023/03/25 11:01:43;;;;;;;;;;;;;;;22.37;35.94;99316.75;10398691;28;20074;-69
2023/03/25 11:06:51;;;;;;;2.10;0.35;;;;;;;21.66;36.46;99323.34;10396612;28;19967;-70
2023/03/25 11:11:53;;;;;;;1.48;0.40;;;;;;;22.44;35.25;99326.72;10383477;28;20217;-69
2023/03/25 11:17:01;;;;;;;1.30;0.20;;;;;;;25.65;29.92;99319.63;10409306;28;20048;-71
2023/03/25 11:22:20;;;;;;;2.30;0.43;;;;;;;23.09;31.54;99318.91;10388911;28;20075;-71
2023/03/25 11:27:28;;;;;;;4.63;0.75;;;;;;;23.04;33.44;99320.59;10398363;28;20052;-71
2023/03/25 11:32:37;;;;;;;1.63;0.50;;;;;;;23.41;31.60;99298.84;10392614;28;20069;-69
2023/03/25 11:37:45;;;;;;;1.42;0.32;;;;;;;22.20;33.13;99296.66;10395976;28;20049;-58
2023/03/25 11:42:56;;;;;;;2.58;0.60;;;;;;;21.04;35.50;99302.22;10400370;28;20120;-59
2023/03/25 11:48:01;;;;;;;4.53;0.90;;;;;;;19.13;37.63;99277.59;10400616;28;20049;-68
2023/03/25 11:53:05;;;;;;;2.85;0.70;;;;;;;20.27;33.37;99277.69;10405574;28;20138;-66
2023/03/25 11:58:14;;;;;;;2.83;0.60;;;;;;;20.97;32.73;99274.38;10401034;28;20064;-66
2023/03/25 12:03:16;;;;;;;1.92;0.60;;;;;;;20.23;34.26;99269.16;10409831;28;20077;-68
2023/03/25 12:08:21;;;;;;;4.13;0.65;;;;;;;23.52;29.25;99264.63;10405116;28;20048;-68
2023/03/25 12:14:10;;;;;;;1.30;0.20;;;;;;;24.98;25.56;99249.47;10404483;28;20120;-67
2023/03/25 12:19:32;;;;;;;1.20;0.40;;;;;;;26.76;25.45;99244.41;10329281;28;20060;-67
2023/03/25 12:24:55;;;;;;;3.53;0.50;;;;;;;25.98;23.46;99222.59;10387899;28;20053;-67
2023/03/25 12:30:13;;;;;;;2.50;0.40;;;;;;;27.82;21.30;99235.91;10411344;28;20057;-68
2023/03/25 12:35:14;;;;;;;3.53;0.40;;;;;;;30.03;18.17;99219.38;10416934;28;20066;-69
2023/03/25 12:40:34;;;;;;;1.75;0.28;;;;;;;27.83;20.24;99189.16;10379191;28;20049;-68
2023/03/25 12:45:39;;;;;;;5.35;0.55;;;;;;;26.89;21.07;99195.94;10365715;28;20083;-68
2023/03/25 12:50:58;;;;;;;1.48;0.22;;;;;;;28.51;20.49;99199.41;10388926;28;20637;-69
2023/03/25 12:56:22;;;;;;;2.35;1.13;;;;;;;30.95;17.53;99193.47;10389443;28;20053;-69
2023/03/25 13:01:52;;;;;;;1.15;0.20;;;;;;;31.27;17.08;99192.19;10390843;28;20129;-69
2023/03/25 13:07:00;;;;;;;;;;;;;;;32.59;16.55;99188.38;10391149;28;20140;-69
2023/03/25 13:12:10;;;;;;;2.60;0.40;;;;;;;31.65;17.21;99218.03;10370247;28;19921;-69
2023/03/25 13:17:23;;;;;;;1.23;0.28;;;;;;;25.94;22.23;99219.53;10390669;28;20062;-69
2023/03/25 13:22:30;;;;;;;1.70;0.30;;;;;;;24.80;24.46;99206.94;10400540;28;20685;-68
2023/03/25 13:27:38;;;;;;;1.08;0.20;;;;;;;26.51;23.60;99205.88;10395639;28;20051;-69
2023/03/25 13:32:52;;;;;;;1.42;0.32;;;;;;;24.56;25.92;99212.44;10397063;28;20056;-68
2023/03/25 13:38:00;;;;;;;2.30;0.73;;;;;;;20.24;31.47;99232.19;10394570;28;20076;-72
2023/03/25 13:43:15;;;;;;;2.15;0.35;;;;;;;20.27;32.80;99210.16;10390127;28;20232;-68
2023/03/25 13:48:22;;;;;;;0.90;0.25;;;;;;;20.22;31.96;99212.63;10398527;28;20385;-68
2023/03/25 13:53:36;;;;;;;1.25;0.20;;;;;;;20.29;31.07;99224.25;10400738;28;20048;-68
2023/03/25 13:59:03;;;;;;;1.55;0.40;;;;;;;19.82;31.93;99242.44;10401570;28;20754;-67
2023/03/25 14:04:27;;;;;;;1.88;0.30;;;;;;;19.46;32.29;99208.56;10397305;28;20055;-65
2023/03/25 14:09:58;;;;;;;2.33;0.60;;;;;;;18.59;34.54;99219.94;10403414;28;20068;-67
2023/03/25 14:15:22;;;;;;;3.55;0.50;;;;;;;18.24;34.50;99211.91;10393888;28;20051;-67
2023/03/25 14:20:43;;;;;;;2.85;0.77;;;;;;;18.30;34.10;99213.78;10398068;28;20037;-68
2023/03/25 14:25:56;;;;;;;1.92;0.60;;;;;;;17.72;33.66;99226.63;10392433;28;20404;-67
2023/03/25 14:31:12;;;;;;;4.85;0.50;;;;;;;17.53;34.00;99245.09;10398045;28;20425;-70
2023/03/25 14:36:15;;;;;;;3.05;0.68;;;;;;;16.93;34.32;99220.28;10395496;28;20055;-67
2023/03/25 14:41:54;;;;;;;1.48;0.65;;;;;;;16.76;33.82;99204.38;10365831;28;20055;-68
2023/03/25 14:47:25;;;;;;;1.73;0.55;;;;;;;16.67;33.87;99204.69;10402546;28;20056;-66
2023/03/25 14:52:36;;;;;;;4.25;0.40;;;;;;;16.34;33.80;99211.28;10404356;28;20056;-67
2023/03/25 14:57:43;;;;;;;1.85;0.40;;;;;;;16.24;35.82;99203.53;10420810;28;20057;-68
2023/03/25 15:02:52;;;;;;;2.05;0.60;;;;;;;16.21;34.78;99189.63;10403413;28;20520;-68
2023/03/25 15:08:00;;;;;;;4.05;0.70;;;;;;;16.16;35.07;99200.94;10392595;28;20868;-71
2023/03/25 15:13:15;;;;;;;2.90;0.57;;;;;;;15.99;35.40;99208.34;10395422;28;20068;-71
2023/03/25 15:18:35;;;;;;;3.55;0.60;;;;;;;15.65;35.35;99204.28;10393659;28;20981;-68
2023/03/25 15:23:48;;;;;;;5.25;0.52;;;;;;;15.61;34.91;99199.47;10394733;28;20064;-65
2023/03/25 15:29:20;;;;;;;6.07;1.00;;;;;;;15.41;34.71;99189.25;10389212;28;20176;-66
2023/03/25 15:34:49;;;;;;;4.85;0.70;;;;;;;15.26;33.82;99191.06;10393731;28;20049;-67
2023/03/25 15:40:16;;;;;;;1.40;0.40;;;;;;;15.09;34.36;99191.19;10389508;28;20144;-66
2023/03/25 15:45:49;;;;;;;2.15;0.50;;;;;;;15.23;34.81;99186.88;10391336;28;20056;-64
2023/03/25 15:51:00;;;;;;;1.80;0.60;;;;;;;15.07;34.41;99185.16;10387649;28;20386;-65
2023/03/25 15:56:15;;;;;;;2.80;0.50;;;;;;;15.04;34.75;99188.19;10394976;28;20053;-66
2023/03/25 16:01:29;;;;;;;2.05;0.55;;;;;;;15.01;35.75;99193.91;10394177;28;20565;-66
2023/03/25 16:06:38;;;;;;;3.58;0.80;;;;;;;15.03;35.97;99202.63;10390244;28;20059;-65
2023/03/25 16:11:42;;;;;;;2.20;0.60;;;;;;;14.76;36.99;99186.03;10393737;28;20056;-65
2023/03/25 16:16:49;;;;;;;2.25;0.75;;;;;;;14.70;37.52;99194.78;10395159;28;20201;-60
2023/03/25 16:21:53;;;;;;;3.05;1.08;;;;;;;14.63;37.08;99188.44;10392710;28;20052;-59
2023/03/25 16:26:56;;;;;;;3.72;1.17;;;;;;;14.53;37.36;99207.38;10394381;28;20087;-60
2023/03/25 16:32:02;;;;;;;2.03;0.55;;;;;;;14.44;38.03;99185.19;10397993;28;20041;-60
2023/03/25 16:37:06;;;;;;;3.15;0.65;;;;;;;14.41;38.75;99206.94;10411042;28;20753;-59
2023/03/25 16:42:18;;;;;;;2.78;0.95;;;;;;;14.31;39.29;99192.94;10404104;28;20845;-61
2023/03/25 16:47:21;;;;;;;2.47;0.80;;;;;;;14.17;39.79;99209.69;10402437;28;20055;-60
2023/03/25 16:52:29;;;;;;;3.50;0.88;;;;;;;14.07;40.54;99191.19;10402627;28;20128;-60
2023/03/25 16:57:37;;;;;;;2.38;0.82;;;;;;;14.04;40.99;99203.06;10402491;28;20045;-62
2023/03/25 17:02:40;;;;;;;3.45;0.73;;;;;;;14.01;41.08;99208.75;10406427;28;20541;-59
2023/03/25 17:07:42;;;;;;;2.53;0.67;;;;;;;13.91;41.28;99216.94;10399752;28;20766;-60
2023/03/25 17:12:52;;;;;;;3.00;0.82;;;;;;;13.76;41.56;99215.97;10403332;28;20167;-60
2023/03/25 17:18:00;;;;;;;4.90;0.75;;;;;;;13.69;41.46;99226.53;10398824;28;20131;-60
2023/03/25 17:23:34;;;;;;;4.20;1.13;;;;;;;13.57;41.72;99239.41;10397934;28;20052;-61
2023/03/25 17:28:41;;;;;;;3.38;0.75;;;;;;;13.52;42.02;99254.28;10365087;28;20049;-58
2023/03/25 17:33:49;;;;;;;4.18;1.02;;;;;;;13.43;42.31;99256.94;10395003;28;20053;-59
2023/03/25 17:38:54;;;;;;;2.95;1.08;;;;;;;13.30;42.68;99248.56;10394106;28;20140;-59
2023/03/25 17:43:56;;;;;;;2.72;0.63;;;;;;;13.18;42.76;99250.72;10397194;28;20056;-58
2023/03/25 17:48:58;;;;;;;2.67;0.65;;;;;;;13.12;43.17;99262.06;10391777;28;20045;-58
2023/03/25 17:54:00;;;;;;;3.17;0.70;;;;;;;12.94;43.79;99243.50;10396594;28;20054;-60
2023/03/25 17:59:04;;;;;;;2.67;0.60;;;;;;;13.01;44.05;99273.03;10391088;28;20129;-60
2023/03/25 18:04:05;;;;;;;2.20;0.50;;;;;;;12.95;44.56;99271.84;10406714;28;20493;-60
2023/03/25 18:09:22;;;;;;;3.03;0.75;;;;;;;12.92;45.04;99277.53;10383090;28;20478;-59
2023/03/25 18:14:25;;;;;;;3.88;0.85;;;;;;;12.85;45.26;99285.38;10391975;28;20262;-59
2023/03/25 18:19:30;;;;;;;4.28;1.20;;;;;;;12.85;45.72;99303.19;10388825;28;20056;-59
2023/03/25 18:24:32;;;;;;;3.58;1.00;;;;;;;12.73;46.49;99314.19;10401202;28;20588;-59
2023/03/25 18:29:36;;;;;;;2.95;1.30;;;;;;;12.70;47.41;99317.19;10399313;28;20044;-59
2023/03/25 18:34:37;;;;;;;4.13;0.98;;;;;;;12.52;48.96;99335.09;10398179;28;20056;-59
2023/03/25 18:39:40;;;;;;;3.10;0.73;;;;;;;12.43;49.47;99352.06;10394877;28;20159;-60
2023/03/25 18:44:41;;;;;;;4.10;1.08;;;;;;;12.26;51.28;99349.28;10398311;28;20069;-59
2023/03/25 18:49:43;;;;;;;3.53;0.95;;;;;;;12.03;52.28;99371.13;10395070;28;20067;-59
2023/03/25 18:54:44;;;;;;;2.28;0.80;;;;;;;11.96;53.12;99383.41;10399045;28;20172;-60
2023/03/25 18:59:46;;;;;;;2.25;0.65;;;;;;;11.92;53.63;99395.34;10400198;28;20055;-59
2023/03/25 19:04:47;;;;;;;3.17;0.70;;;;;;;11.78;54.39;99409.22;10396654;28;20053;-63
2023/03/25 19:10:01;;;;;;;1.63;0.70;;;;;;;11.55;55.68;99407.00;10393950;28;20102;-59
2023/03/25 19:15:03;;;;;;;2.28;0.70;;;;;;;11.48;56.10;99419.22;10397141;28;20691;-58
2023/03/25 19:20:06;;;;;;;2.45;0.80;;;;;;;11.53;56.39;99418.78;10397331;28;20055;-61
2023/03/25 19:25:08;;;;;;;1.85;0.73;;;;;;;11.47;56.26;99420.25;10394597;28;20691;-58
2023/03/25 19:30:16;;;;;;;1.30;0.70;;;;;;;11.42;56.92;99430.50;10396188;28;20056;-58
2023/03/25 19:35:19;;;;;;;1.65;0.93;;;;;;;11.38;57.10;99443.28;10396475;28;20065;-58
2023/03/25 19:40:24;;;;;;;2.50;0.63;;;;;;;11.23;58.08;99452.72;10393951;28;21560;-59
2023/03/25 19:45:29;;;;;;;3.97;1.27;;;;;;;11.19;58.17;99465.53;10401467;28;20045;-59
2023/03/25 19:50:32;;;;;;;0.85;0.52;;;;;;;11.18;58.52;99468.34;10392301;28;20079;-60
2023/03/25 19:55:34;;;;;;;1.10;0.45;;;;;;;11.11;58.92;99462.75;10394030;28;20094;-59
2023/03/25 20:00:36;;;;;;;1.45;0.50;;;;;;;11.08;59.30;99473.69;10404441;28;20580;-60
2023/03/25 20:05:37;;;;;;;4.18;0.40;;;;;;;10.96;60.49;99468.56;10413642;28;20126;-58
2023/03/25 20:10:40;;;;;;;3.03;0.30;;;;;;;10.93;60.65;99466.19;10404028;28;20159;-61
2023/03/25 20:15:41;;;;;;;1.65;0.55;;;;;;;10.95;59.98;99461.53;10416587;28;20246;-56
2023/03/25 20:20:43;;;;;;;1.88;0.60;;;;;;;11.00;61.63;99460.28;10401459;28;20623;-56
2023/03/25 20:25:46;;;;;;;1.92;0.50;;;;;;;10.94;61.17;99451.91;10404365;28;20945;-56
2023/03/25 20:30:47;;;;;;;0.70;0.40;;;;;;;10.94;61.47;99451.03;10401587;28;20091;-57
2023/03/25 20:35:49;;;;;;;1.75;0.50;;;;;;;10.91;61.91;99451.31;10403814;28;20041;-59
2023/03/25 20:40:53;;;;;;;3.83;1.00;;;;;;;10.85;62.07;99446.59;10403121;28;20048;-59
2023/03/25 20:45:55;;;;;;;2.85;1.13;;;;;;;10.76;62.61;99434.97;10402835;28;20841;-58
2023/03/25 20:51:02;;;;;;;1.52;0.65;;;;;;;10.74;62.72;99434.28;10399944;28;20076;-58
2023/03/25 20:56:05;;;;;;;2.08;0.60;;;;;;;10.59;63.66;99437.41;10404317;28;20041;-58
2023/03/25 21:01:06;;;;;;;4.15;1.25;;;;;;;10.58;63.34;99426.91;10398467;28;20052;-58
2023/03/25 21:06:09;;;;;;;4.88;0.90;;;;;;;10.46;64.26;99420.91;10398533;28;20060;-58
2023/03/25 21:11:25;;;;;;;3.17;0.98;;;;;;;10.52;64.61;99435.47;10401629;28;20296;-60
2023/03/25 21:16:27;;;;;;;3.95;0.65;;;;;;;10.37;66.04;99438.59;10402472;28;20057;-59
2023/03/25 21:21:30;;;;;;;1.55;0.63;;;;;;;10.37;66.44;99445.69;10399598;28;20052;-58
2023/03/25 21:26:33;;;;;;;1.63;0.63;;;;;;;10.38;66.93;99460.69;10396720;28;20072;-59
2023/03/25 21:31:34;;;;;;;2.55;0.52;;;;;;;10.40;67.10;99464.03;10396455;28;20059;-59
2023/03/25 21:36:36;;;;;;;3.67;1.05;;;;;;;10.34;67.97;99461.94;10401166;28;21055;-61
2023/03/25 21:41:38;;;;;;;2.63;0.98;;;;;;;10.38;68.67;99460.69;10401540;28;20057;-60
2023/03/25 21:46:41;;;;;;;2.50;0.80;;;;;;;10.35;68.67;99453.81;10402866;28;20044;-59
2023/03/25 21:51:43;;;;;;;1.95;0.60;;;;;;;10.34;69.46;99460.13;10395196;28;20044;-59
2023/03/25 21:56:45;;;;;;;2.03;1.25;;;;;;;10.37;69.05;99464.31;10409094;28;20202;-59
2023/03/25 22:01:46;;;;;;;3.05;0.65;;;;;;;10.20;70.10;99464.03;10394849;28;20045;-59
2023/03/25 22:06:48;;;;;;;3.50;1.27;;;;;;;10.13;70.56;99470.88;10389428;28;20041;-58
2023/03/25 22:11:50;;;;;;;2.38;0.85;;;;;;;10.09;70.16;99465.00;10400695;28;20083;-58
2023/03/25 22:16:51;;;;;;;4.55;1.38;;;;;;;9.96;70.25;99469.75;10401268;28;20098;-59
2023/03/25 22:21:53;;;;;;;6.90;0.90;;;;;;;10.02;70.15;99479.84;10402168;28;20060;-58
2023/03/25 22:26:54;;;;;;;2.10;0.50;;;;;;;9.99;69.92;99479.28;10400335;28;20606;-58
2023/03/25 22:31:56;;;;;;;2.67;1.30;;;;;;;9.93;70.40;99475.34;10401066;28;20055;-58
2023/03/25 22:36:58;;;;;;;2.47;0.93;;;;;;;9.89;70.49;99456.19;10400935;28;20075;-59
2023/03/25 22:41:59;;;;;;;1.65;0.73;;;;;;;9.91;70.19;99464.84;10400594;28;20731;-58
2023/03/25 22:47:02;;;;;;;1.30;0.65;;;;;;;9.94;70.19;99473.53;10400766;28;20440;-59
2023/03/25 22:52:04;;;;;;;2.13;0.77;;;;;;;9.91;70.73;99477.31;10398978;28;20063;-59
2023/03/25 22:57:06;;;;;;;4.03;1.00;;;;;;;9.84;70.57;99473.53;10400380;28;20110;-59
2023/03/25 23:02:10;;;;;;;4.32;1.45;;;;;;;9.80;70.55;99483.56;10400869;28;20060;-61
2023/03/25 23:07:12;;;;;;;3.17;1.05;;;;;;;9.85;70.59;99491.16;10401138;28;20064;-59
2023/03/25 23:12:22;;;;;;;2.63;1.05;;;;;;;9.84;70.49;99495.63;10399850;28;20147;-59
2023/03/25 23:17:25;;;;;;;5.15;1.27;;;;;;;9.82;70.39;99497.59;10402756;28;20111;-59
2023/03/25 23:22:27;;;;;;;1.90;0.75;;;;;;;9.80;70.54;99504.84;10401505;28;20139;-58
2023/03/25 23:27:29;;;;;;;5.25;1.35;;;;;;;9.85;70.62;99509.78;10385927;28;20041;-59
2023/03/25 23:32:34;;;;;;;4.05;0.85;;;;;;;9.80;70.87;99499.53;10400682;28;20073;-59
2023/03/25 23:37:36;;;;;;;2.63;0.70;;;;;;;9.75;71.22;99501.75;10405559;28;20711;-59
2023/03/25 23:42:37;;;;;;;2.97;1.08;;;;;;;9.72;71.60;99502.03;10408081;28;20394;-58
2023/03/25 23:47:39;;;;;;;4.53;1.27;;;;;;;9.60;71.28;99500.47;10383120;28;20059;-58
2023/03/25 23:52:40;;;;;;;2.22;0.90;;;;;;;9.53;72.19;99503.69;10407294;28;20048;-61
2023/03/25 23:57:42;;;;;;;2.40;1.02;;;;;;;9.50;72.67;99498.63;10410112;28;20135;-59
